Terminal Aerodrome Forecast
Issued by NWS St Louis, MO

Home | Current Version | Previous Version | Text Only | Print | Product List | Glossary On
Versions: 1 2 3 4 5 6 7 8 9 10 11 12 13 14 15 16 17 18 19 20 21 22 23 24 25 26
427
FTUS43 KLSX 241728
TAFSTL
TAF
KSTL 241728Z 2418/2524 27010G21KT P6SM OVC015
     FM242100 26012G23KT P6SM BKN022
     FM250800 30015G24KT P6SM OVC015
     FM251500 30015G24KT P6SM BKN025
     FM251700 30013G22KT P6SM SCT120=

USA.gov is the U.S. government's official web portal to all federal, state and local government web resources and services.